Time;durP1;ratioP1;P1;durP2;ratioP2;P2;SDS_P1;SDS_P2;PMS_P1;PMS_P2;Temp;Humidity;BMP_temperature;BMP_pressure;BME280_temperature;BME280_humidity;BME280_pressure;Samples;Min_cycle;Max_cycle;Signal;HPM_P1;HPM_P2
2023/09/09 00:00:24;;;;;;;7.10;5.13;;;;;;;20.51;70.08;101429.13;2103317;27;20136;-71
2023/09/09 00:01:27;;;;;;;7.55;4.80;;;;;;;20.54;69.99;101438.59;2111880;27;20040;-71
2023/09/09 00:02:28;;;;;;;8.68;4.93;;;;;;;20.53;70.08;101440.53;2112276;27;20035;-71
2023/09/09 00:03:31;;;;;;;7.53;4.90;;;;;;;20.52;69.84;101438.94;2103384;27;20845;-71
2023/09/09 00:04:34;;;;;;;6.47;4.50;;;;;;;20.53;69.78;101437.00;2112080;27;20138;-71
2023/09/09 00:05:36;;;;;;;6.60;5.38;;;;;;;20.54;69.90;101433.16;2120107;27;20038;-70
2023/09/09 00:06:37;;;;;;;6.25;4.70;;;;;;;20.55;69.82;101435.56;2112008;27;20859;-70
2023/09/09 00:07:40;;;;;;;6.22;5.28;;;;;;;20.54;69.85;101430.41;2112140;27;20034;-71
2023/09/09 00:08:42;;;;;;;8.45;5.18;;;;;;;20.54;69.99;101430.41;2111413;27;20026;-70
2023/09/09 00:09:44;;;;;;;7.45;4.75;;;;;;;20.53;69.66;101431.53;2099969;27;20057;-71
2023/09/09 00:10:46;;;;;;;11.60;5.10;;;;;;;20.52;69.73;101433.47;2116528;27;20043;-70
2023/09/09 00:11:49;;;;;;;7.82;4.78;;;;;;;20.53;69.79;101431.53;2127806;27;20026;-70
2023/09/09 00:12:51;;;;;;;10.07;5.07;;;;;;;20.52;69.77;101435.38;2120151;27;20023;-70
2023/09/09 00:13:54;;;;;;;6.63;4.32;;;;;;;20.52;69.81;101438.13;2111771;27;20886;-71
2023/09/09 00:14:57;;;;;;;8.77;5.05;;;;;;;20.52;69.84;101443.59;2111441;27;20058;-70
2023/09/09 00:15:58;;;;;;;7.45;4.95;;;;;;;20.52;69.85;101438.13;2111821;27;20040;-71
2023/09/09 00:17:00;;;;;;;8.10;5.47;;;;;;;20.53;69.84;101439.75;2105239;27;20040;-70
2023/09/09 00:18:05;;;;;;;6.70;5.15;;;;;;;20.52;69.78;101441.69;2103462;27;20086;-70
2023/09/09 00:19:09;;;;;;;7.25;5.10;;;;;;;20.51;69.92;101437.31;2112881;27;20020;-70
2023/09/09 00:20:14;;;;;;;6.30;4.85;;;;;;;20.52;69.99;101435.38;2111960;27;20028;-70
2023/09/09 00:21:16;;;;;;;7.35;5.22;;;;;;;20.51;69.98;101437.31;2111984;27;20034;-70
2023/09/09 00:22:18;;;;;;;5.30;4.78;;;;;;;20.51;70.01;101437.31;2116582;27;20034;-70
2023/09/09 00:23:24;;;;;;;10.90;5.03;;;;;;;20.52;70.01;101438.13;2119014;27;20015;-70
2023/09/09 00:24:25;;;;;;;7.47;4.95;;;;;;;20.51;70.00;101437.31;2111509;27;20032;-70
2023/09/09 00:25:27;;;;;;;6.68;4.90;;;;;;;20.51;69.99;101439.22;2105674;27;20020;-70
2023/09/09 00:26:32;;;;;;;7.90;4.95;;;;;;;20.51;69.84;101442.78;2128671;27;20441;-70
2023/09/09 00:27:34;;;;;;;8.00;5.13;;;;;;;20.52;69.96;101438.13;2105500;27;21332;-70
2023/09/09 00:28:36;;;;;;;7.32;5.07;;;;;;;20.51;69.97;101441.97;2103242;27;20064;-69
2023/09/09 00:29:44;;;;;;;7.20;5.00;;;;;;;20.51;70.11;101439.22;2102837;27;20024;-70
2023/09/09 00:30:48;;;;;;;7.50;5.00;;;;;;;20.50;69.83;101438.44;2096153;27;20033;-70
2023/09/09 00:31:49;;;;;;;8.65;5.28;;;;;;;20.49;70.04;101442.28;2095367;27;20075;-70
2023/09/09 00:32:51;;;;;;;8.00;4.93;;;;;;;20.49;69.85;101434.09;2103287;27;20036;-70
2023/09/09 00:33:54;;;;;;;5.80;4.80;;;;;;;20.49;69.82;101439.56;2111156;27;20059;-70
2023/09/09 00:34:56;;;;;;;7.88;4.85;;;;;;;20.48;70.12;101443.41;2095085;27;20134;-70
2023/09/09 00:36:04;;;;;;;6.85;5.00;;;;;;;20.47;70.13;101436.34;2111761;27;20138;-70
2023/09/09 00:37:08;;;;;;;6.32;5.35;;;;;;;20.47;70.03;101436.34;2111674;27;21250;-70
2023/09/09 00:38:11;;;;;;;8.88;5.10;;;;;;;20.47;70.23;101441.81;2113234;27;20039;-70
2023/09/09 00:39:13;;;;;;;6.45;5.13;;;;;;;20.46;69.97;101434.75;2112359;27;20038;-70
2023/09/09 00:40:17;;;;;;;6.43;5.15;;;;;;;20.47;70.21;101441.81;2083207;28;20083;-70
2023/09/09 00:41:20;;;;;;;6.60;4.80;;;;;;;20.43;70.14;101440.03;2088857;27;20992;-69
2023/09/09 00:42:23;;;;;;;7.50;4.82;;;;;;;20.39;70.23;101431.69;2108705;27;20028;-70
2023/09/09 00:43:25;;;;;;;6.55;4.88;;;;;;;20.44;70.25;101438.91;2108397;27;20969;-69
2023/09/09 00:44:27;;;;;;;6.28;4.85;;;;;;;20.45;70.21;101440.53;2095307;27;20045;-69
2023/09/09 00:45:29;;;;;;;5.63;4.65;;;;;;;20.44;69.91;101439.72;2094604;27;20033;-70
2023/09/09 00:46:34;;;;;;;6.40;5.40;;;;;;;20.45;70.27;101444.06;2094846;27;20036;-70
2023/09/09 00:47:36;;;;;;;7.68;5.10;;;;;;;20.45;70.06;101437.78;2101036;27;20040;-70
2023/09/09 00:48:40;;;;;;;7.78;5.25;;;;;;;20.46;70.24;101436.66;2103581;27;20109;-70
2023/09/09 00:49:45;;;;;;;7.10;4.40;;;;;;;20.44;70.09;101439.72;2113279;27;21570;-70
2023/09/09 00:50:49;;;;;;;6.78;5.20;;;;;;;20.44;70.26;101442.44;2111692;27;20094;-70
2023/09/09 00:51:51;;;;;;;6.95;5.05;;;;;;;20.43;70.07;101438.13;2111636;27;20030;-70
2023/09/09 00:52:54;;;;;;;8.00;5.15;;;;;;;20.43;70.24;101443.59;2095295;27;20037;-71
2023/09/09 00:53:57;;;;;;;6.53;4.82;;;;;;;20.44;70.28;101433.47;2100100;27;20039;-71
2023/09/09 00:55:02;;;;;;;6.82;5.10;;;;;;;20.44;70.27;101437.00;2103583;27;20036;-71
2023/09/09 00:56:06;;;;;;;8.50;5.05;;;;;;;20.43;70.15;101440.84;2111224;27;20074;-69
2023/09/09 00:57:11;;;;;;;6.57;5.20;;;;;;;20.43;70.06;101445.50;2120099;27;20020;-70
2023/09/09 00:58:13;;;;;;;5.93;4.88;;;;;;;20.41;70.30;101440.38;2102960;27;20022;-70
2023/09/09 00:59:18;;;;;;;6.90;4.95;;;;;;;20.40;70.08;101436.03;2092866;27;20016;-71
2023/09/09 01:00:20;;;;;;;6.88;5.13;;;;;;;20.40;70.22;101441.50;2104040;27;20715;-71
2023/09/09 01:01:21;;;;;;;8.15;5.47;;;;;;;20.41;70.26;101447.75;2109148;27;20036;-71
2023/09/09 01:02:24;;;;;;;7.10;5.10;;;;;;;20.40;70.14;101443.41;2117667;27;20092;-71
2023/09/09 01:03:29;;;;;;;9.73;5.50;;;;;;;20.38;70.36;101438.28;2125235;27;20035;-71
2023/09/09 01:04:30;;;;;;;9.75;5.35;;;;;;;20.39;70.34;101445.34;2119696;27;20023;-70
2023/09/09 01:05:33;;;;;;;6.72;5.10;;;;;;;20.37;70.30;101447.63;2087838;27;20048;-70
2023/09/09 01:06:36;;;;;;;7.28;5.10;;;;;;;20.33;70.31;101439.25;2103682;27;20017;-70
2023/09/09 01:08:01;;;;;;;7.85;5.13;;;;;;;20.38;70.17;101443.75;2108482;27;20084;-70
2023/09/09 01:09:06;;;;;;;6.40;4.85;;;;;;;20.37;70.16;101445.69;2092864;28;20059;-71
2023/09/09 01:10:13;;;;;;;6.18;4.95;;;;;;;20.36;70.46;101449.53;2088672;27;20037;-70
2023/09/09 01:11:14;;;;;;;9.13;5.13;;;;;;;20.36;70.32;101444.09;2111630;27;20016;-71
2023/09/09 01:12:18;;;;;;;6.00;5.30;;;;;;;20.37;70.23;101450.34;2094376;27;20036;-70
2023/09/09 01:13:23;;;;;;;6.13;4.93;;;;;;;20.36;70.35;101451.44;2095650;27;20040;-71
2023/09/09 01:14:24;;;;;;;6.97;5.28;;;;;;;20.38;70.28;101454.66;2094745;28;20036;-71
2023/09/09 01:15:27;;;;;;;6.30;4.68;;;;;;;20.37;70.39;101453.06;2094705;27;20060;-71
2023/09/09 01:16:30;;;;;;;6.93;5.10;;;;;;;20.37;70.35;101448.41;2103047;27;20024;-71
2023/09/09 01:17:34;;;;;;;8.68;4.88;;;;;;;20.36;70.20;101445.97;2115469;27;20038;-71
2023/09/09 01:18:38;;;;;;;8.30;5.60;;;;;;;20.32;70.48;101440.38;2109274;27;20027;-70
2023/09/09 01:19:43;;;;;;;6.20;4.97;;;;;;;20.33;70.32;101442.00;2095254;27;20035;-70
2023/09/09 01:21:02;;;;;;;5.72;4.90;;;;;;;20.33;70.45;101442.00;2089597;28;21170;-70
2023/09/09 01:22:11;;;;;;;7.00;5.40;;;;;;;20.32;70.34;101445.84;2099638;27;20374;-70
2023/09/09 01:23:12;;;;;;;7.00;5.18;;;;;;;20.31;70.44;101443.44;2102756;28;20982;-71
2023/09/09 01:24:17;;;;;;;6.68;4.93;;;;;;;20.29;70.44;101442.94;2102249;27;20040;-71
2023/09/09 01:25:19;;;;;;;8.13;5.32;;;;;;;20.28;70.49;101444.88;2103648;27;20139;-71
2023/09/09 01:26:23;;;;;;;8.40;5.20;;;;;;;20.28;70.65;101444.09;2103023;27;20062;-71
2023/09/09 01:27:25;;;;;;;8.45;5.13;;;;;;;20.27;70.65;101439.72;2101191;27;20039;-70
2023/09/09 01:28:28;;;;;;;5.88;5.03;;;;;;;20.28;70.58;101446.81;2103842;27;20086;-71
2023/09/09 01:29:30;;;;;;;7.88;5.40;;;;;;;20.28;70.72;101449.53;2093980;28;20152;-71
2023/09/09 01:30:31;;;;;;;8.50;5.53;;;;;;;20.26;70.82;101444.38;2085916;28;20200;-71
2023/09/09 01:31:33;;;;;;;8.68;5.40;;;;;;;20.26;70.76;101444.38;2103043;27;20020;-71
2023/09/09 01:32:36;;;;;;;8.02;5.57;;;;;;;20.26;70.64;101441.66;2105191;27;20957;-71
2023/09/09 01:33:37;;;;;;;6.50;5.32;;;;;;;20.28;70.62;101452.28;2083794;28;20024;-71
2023/09/09 01:34:43;;;;;;;7.85;5.53;;;;;;;20.27;70.49;101453.38;2087708;27;21432;-71
2023/09/09 01:35:46;;;;;;;11.88;5.30;;;;;;;20.26;70.66;101443.59;2095237;28;20044;-71
2023/09/09 01:36:50;;;;;;;7.70;5.43;;;;;;;20.25;70.64;101445.53;2110938;27;20954;-70
2023/09/09 01:37:52;;;;;;;8.93;5.70;;;;;;;20.27;70.78;101446.00;2090259;28;20044;-70
2023/09/09 01:38:55;;;;;;;6.80;5.55;;;;;;;20.27;70.66;101447.91;2099159;27;20138;-70
2023/09/09 01:39:57;;;;;;;6.82;5.30;;;;;;;20.26;70.76;101444.38;2108682;27;20082;-71
2023/09/09 01:40:59;;;;;;;6.82;5.10;;;;;;;20.27;70.58;101442.47;2102612;27;20960;-71
2023/09/09 01:42:03;;;;;;;9.27;5.38;;;;;;;20.27;70.75;101445.19;2103840;27;20150;-71
2023/09/09 01:43:05;;;;;;;8.35;5.28;;;;;;;20.23;70.75;101439.56;2097571;28;20123;-71
2023/09/09 01:44:12;;;;;;;6.45;5.03;;;;;;;20.24;70.80;101451.28;2096694;27;21325;-71
2023/09/09 01:45:14;;;;;;;6.00;5.20;;;;;;;20.24;70.79;101448.56;2104823;27;20124;-71
2023/09/09 01:46:16;;;;;;;6.25;5.38;;;;;;;20.24;70.74;101443.09;2104296;27;20921;-71
2023/09/09 01:47:20;;;;;;;6.13;5.38;;;;;;;20.23;70.75;101444.22;2103455;27;20036;-69
2023/09/09 01:48:25;;;;;;;6.32;5.25;;;;;;;20.23;70.79;101438.78;2096119;27;20871;-70
2023/09/09 01:49:29;;;;;;;8.65;5.55;;;;;;;20.23;71.00;101444.22;2095883;28;20039;-71
2023/09/09 01:50:33;;;;;;;7.22;5.22;;;;;;;20.22;70.68;101446.16;2079591;28;20025;-71
2023/09/09 01:51:34;;;;;;;6.10;5.20;;;;;;;20.21;70.78;101444.56;2088557;27;20119;-70
2023/09/09 01:52:39;;;;;;;7.65;5.50;;;;;;;20.21;70.56;101446.47;2102869;28;20083;-71
2023/09/09 01:53:40;;;;;;;7.20;5.20;;;;;;;20.19;70.86;101441.34;2089127;27;20021;-71
2023/09/09 01:54:43;;;;;;;10.18;4.97;;;;;;;20.19;70.84;101446.00;2112849;27;20030;-70
2023/09/09 01:55:47;;;;;;;6.25;5.10;;;;;;;20.18;70.93;101445.22;2112101;27;20835;-70
2023/09/09 01:56:49;;;;;;;5.50;4.90;;;;;;;20.17;70.96;101440.06;2105254;27;20028;-71
2023/09/09 01:57:51;;;;;;;6.43;5.40;;;;;;;20.17;71.10;101440.06;2099895;28;20206;-71
2023/09/09 01:58:52;;;;;;;6.00;4.70;;;;;;;20.18;71.13;101438.97;2082397;28;20033;-70
2023/09/09 01:59:54;;;;;;;6.15;5.05;;;;;;;20.16;70.97;101443.94;2087431;27;20029;-70
2023/09/09 02:00:56;;;;;;;6.85;4.80;;;;;;;20.16;71.05;101441.19;2095832;28;20037;-71
2023/09/09 02:01:58;;;;;;;6.00;4.70;;;;;;;20.17;70.97;101443.59;2096140;27;20025;-71
2023/09/09 02:02:59;;;;;;;9.23;4.80;;;;;;;20.17;70.91;101440.84;2096308;27;20130;-70
2023/09/09 02:04:02;;;;;;;6.07;5.07;;;;;;;20.16;70.96;101443.94;2091277;28;20287;-69
2023/09/09 02:05:03;;;;;;;8.02;4.88;;;;;;;20.16;70.98;101446.66;2080550;28;20065;-70
2023/09/09 02:06:05;;;;;;;9.23;5.20;;;;;;;20.14;70.91;101439.59;2096259;28;20036;-71
2023/09/09 02:07:08;;;;;;;5.80;5.07;;;;;;;20.16;71.06;101443.94;2095488;28;20041;-69
2023/09/09 02:08:12;;;;;;;7.40;5.38;;;;;;;20.14;71.01;101439.59;2089010;27;20191;-71
2023/09/09 02:09:13;;;;;;;5.97;4.93;;;;;;;20.13;71.14;101435.25;2103995;28;20033;-70
2023/09/09 02:10:15;;;;;;;7.63;5.95;;;;;;;20.14;71.06;101446.97;2075487;28;20017;-70
2023/09/09 02:11:18;;;;;;;7.95;5.10;;;;;;;20.13;71.07;101439.91;2095957;27;20029;-71
2023/09/09 02:12:21;;;;;;;7.28;5.60;;;;;;;20.13;71.12;101434.44;2103669;28;20031;-70
2023/09/09 02:13:28;;;;;;;6.72;5.57;;;;;;;20.12;71.10;101430.91;2112069;27;20150;-71
2023/09/09 02:14:30;;;;;;;8.30;5.13;;;;;;;20.12;71.17;101427.38;2103710;27;21336;-70
2023/09/09 02:15:36;;;;;;;8.18;5.43;;;;;;;20.12;71.08;101436.38;2104119;27;20020;-70
2023/09/09 02:16:38;;;;;;;7.60;5.65;;;;;;;20.11;70.91;101434.78;2104579;27;20851;-70
2023/09/09 02:17:42;;;;;;;8.07;6.05;;;;;;;20.11;71.21;101434.78;2111119;27;20122;-70
2023/09/09 02:18:43;;;;;;;7.97;5.88;;;;;;;20.11;70.98;101434.78;2095935;28;20024;-71
2023/09/09 02:19:46;;;;;;;7.68;5.32;;;;;;;20.11;71.10;101431.22;2104002;27;20855;-70
2023/09/09 02:20:59;;;;;;;7.47;5.90;;;;;;;20.11;71.07;101429.31;2110631;27;20973;-71
2023/09/09 02:22:01;;;;;;;7.28;5.40;;;;;;;20.10;71.13;101427.69;2107213;27;20942;-70
2023/09/09 02:23:03;;;;;;;6.57;5.60;;;;;;;20.11;71.17;101429.31;2108036;27;20031;-70
2023/09/09 02:24:07;;;;;;;8.13;6.18;;;;;;;20.09;71.02;101428.81;2099940;27;20040;-71
2023/09/09 02:25:08;;;;;;;9.00;6.53;;;;;;;20.08;71.07;101429.97;2104034;27;20143;-71
2023/09/09 02:26:10;;;;;;;8.75;6.28;;;;;;;20.08;71.08;101426.41;2104177;27;20016;-71
2023/09/09 02:27:12;;;;;;;8.98;5.95;;;;;;;20.07;71.19;101431.06;2113050;27;20228;-71
2023/09/09 02:28:13;;;;;;;8.20;5.65;;;;;;;20.06;71.10;101428.66;2104499;27;20139;-71
2023/09/09 02:29:16;;;;;;;9.38;6.00;;;;;;;20.06;71.15;101434.13;2096574;27;20028;-70
2023/09/09 02:30:18;;;;;;;10.38;6.05;;;;;;;20.05;71.35;101432.50;2104831;27;20016;-70
2023/09/09 02:31:20;;;;;;;8.70;6.35;;;;;;;20.04;71.33;101422.72;2087758;28;20040;-70
2023/09/09 02:32:22;;;;;;;9.40;6.20;;;;;;;20.01;71.46;101420.63;2096691;27;20992;-70
2023/09/09 02:33:24;;;;;;;7.88;5.70;;;;;;;20.00;71.32;101427.22;2112886;27;20027;-70
2023/09/09 02:34:28;;;;;;;9.15;6.47;;;;;;;20.01;71.31;101426.88;2110348;27;20130;-71
2023/09/09 02:35:30;;;;;;;7.72;6.05;;;;;;;20.00;71.41;101422.56;2095642;27;20782;-71
2023/09/09 02:36:32;;;;;;;9.43;6.22;;;;;;;20.01;71.53;101428.81;2095868;27;20044;-71
2023/09/09 02:37:36;;;;;;;6.72;5.85;;;;;;;20.00;71.65;101427.22;2094719;28;21175;-71
2023/09/09 02:38:40;;;;;;;9.80;6.07;;;;;;;19.99;71.39;101425.63;2104113;27;20059;-71
2023/09/09 02:39:41;;;;;;;7.90;5.72;;;;;;;19.98;71.48;101430.25;2103119;27;20143;-71
2023/09/09 02:40:43;;;;;;;10.73;6.13;;;;;;;19.97;71.63;101425.94;2083366;28;20045;-71
2023/09/09 02:41:45;;;;;;;8.52;5.75;;;;;;;19.96;71.66;101427.06;2078815;28;21679;-71
2023/09/09 02:42:50;;;;;;;11.25;6.28;;;;;;;19.96;71.63;101429.78;2096779;27;20082;-71
2023/09/09 02:43:51;;;;;;;9.60;5.70;;;;;;;19.95;71.75;101422.72;2095023;28;20146;-71
2023/09/09 02:44:53;;;;;;;9.18;6.03;;;;;;;19.95;71.85;101428.16;2087416;27;20033;-71
2023/09/09 02:45:55;;;;;;;8.93;6.22;;;;;;;19.95;72.11;101425.44;2095169;27;20068;-71
2023/09/09 02:46:59;;;;;;;8.00;5.82;;;;;;;19.95;72.12;101421.91;2095774;27;20013;-71
2023/09/09 02:48:01;;;;;;;8.93;6.13;;;;;;;19.94;71.88;101423.84;2092760;27;20886;-71
2023/09/09 02:49:03;;;;;;;8.40;5.88;;;;;;;19.95;71.93;101424.63;2103889;27;20032;-71
2023/09/09 02:50:07;;;;;;;10.65;5.90;;;;;;;19.93;72.04;101427.72;2087327;28;20035;-71
2023/09/09 02:51:09;;;;;;;8.93;5.65;;;;;;;19.93;72.13;101430.44;2088308;27;20210;-71
2023/09/09 02:52:13;;;;;;;11.40;6.18;;;;;;;19.93;72.10;101427.72;2103717;27;20123;-71
2023/09/09 02:53:15;;;;;;;14.30;6.90;;;;;;;19.92;72.02;101426.09;2116972;27;21294;-71
2023/09/09 02:54:17;;;;;;;11.30;6.88;;;;;;;19.90;72.20;101429.16;2111955;27;21215;-71
2023/09/09 02:55:21;;;;;;;10.52;6.43;;;;;;;19.89;72.16;101427.53;2103689;27;20032;-71
2023/09/09 02:56:24;;;;;;;9.02;6.40;;;;;;;19.89;72.10;101432.19;2103733;27;20866;-72
2023/09/09 02:57:26;;;;;;;10.68;6.60;;;;;;;19.85;72.48;101420.31;2112793;27;20120;-71
2023/09/09 02:58:30;;;;;;;10.35;6.75;;;;;;;19.89;72.51;101426.72;2114984;27;20850;-70
2023/09/09 02:59:33;;;;;;;9.15;6.50;;;;;;;19.88;72.42;101427.84;2110370;27;20028;-70
2023/09/09 03:00:43;;;;;;;8.10;6.40;;;;;;;19.88;72.42;101427.84;2111696;27;20237;-71
2023/09/09 03:01:47;;;;;;;12.30;6.60;;;;;;;19.88;72.35;101431.38;2095544;27;20144;-70
2023/09/09 03:02:51;;;;;;;9.43;6.50;;;;;;;19.88;72.46;101430.59;2095836;27;20859;-71
2023/09/09 03:03:54;;;;;;;8.15;6.45;;;;;;;19.89;72.51;101421.25;2120659;27;20019;-70
2023/09/09 03:04:58;;;;;;;10.43;6.10;;;;;;;19.86;72.44;101432.81;2111882;27;20016;-71
2023/09/09 03:05:59;;;;;;;9.30;6.07;;;;;;;19.89;72.62;101426.72;2112875;27;20023;-71
2023/09/09 03:07:02;;;;;;;12.98;6.40;;;;;;;19.90;72.73;101433.81;2111836;27;20027;-71
2023/09/09 03:08:06;;;;;;;10.10;6.55;;;;;;;19.89;72.66;101426.72;2087448;27;20060;-71
2023/09/09 03:09:10;;;;;;;9.15;6.13;;;;;;;19.89;72.47;101430.28;2091078;27;20127;-71
2023/09/09 03:10:15;;;;;;;10.57;6.35;;;;;;;19.89;72.64;101421.25;2107046;27;20011;-70
2023/09/09 03:11:19;;;;;;;7.70;5.90;;;;;;;19.90;72.54;101431.88;2101044;27;20827;-70
2023/09/09 03:12:23;;;;;;;8.35;6.07;;;;;;;19.89;72.75;101433.00;2105164;27;20221;-70
2023/09/09 03:13:24;;;;;;;9.98;6.40;;;;;;;19.90;72.65;101428.34;2107599;27;20036;-71
2023/09/09 03:14:26;;;;;;;9.38;6.20;;;;;;;19.91;72.72;101429.94;2103581;27;20031;-71
2023/09/09 03:15:33;;;;;;;11.40;6.60;;;;;;;19.91;72.83;101425.28;2103955;27;20105;-71
2023/09/09 03:16:35;;;;;;;11.43;6.10;;;;;;;19.91;72.95;101424.47;2104208;27;20028;-71
2023/09/09 03:17:37;;;;;;;10.68;6.43;;;;;;;19.91;72.51;101429.94;2103608;27;20035;-71
2023/09/09 03:18:44;;;;;;;10.50;6.50;;;;;;;19.89;72.85;101422.09;2110249;27;20026;-71
2023/09/09 03:19:48;;;;;;;12.00;7.00;;;;;;;19.91;72.68;101430.75;2113148;27;20032;-70
2023/09/09 03:20:50;;;;;;;12.30;6.65;;;;;;;19.91;72.62;101424.47;2112282;27;20087;-71
2023/09/09 03:21:52;;;;;;;13.32;6.50;;;;;;;19.89;72.73;101422.09;2104415;27;20165;-70
2023/09/09 03:22:53;;;;;;;13.02;6.57;;;;;;;19.91;72.83;101424.47;2112723;27;20081;-70
2023/09/09 03:23:55;;;;;;;12.70;6.78;;;;;;;19.90;72.85;101428.34;2104231;27;20149;-70
2023/09/09 03:25:01;;;;;;;12.07;7.00;;;;;;;19.88;72.78;101425.13;2103340;27;20048;-70
2023/09/09 03:26:04;;;;;;;11.35;6.75;;;;;;;19.88;72.76;101420.47;2104519;27;20021;-71
2023/09/09 03:27:07;;;;;;;11.23;6.20;;;;;;;19.88;72.69;101425.13;2112234;27;20168;-71
2023/09/09 03:28:09;;;;;;;11.32;6.35;;;;;;;19.88;72.79;101425.13;2104910;27;21606;-71
2023/09/09 03:29:11;;;;;;;8.90;6.43;;;;;;;19.89;72.91;101415.81;2103273;27;20495;-71
2023/09/09 03:30:13;;;;;;;7.47;6.28;;;;;;;19.87;72.88;101421.59;2103954;27;20036;-71
2023/09/09 03:31:14;;;;;;;9.57;6.50;;;;;;;19.86;73.01;101417.28;2103201;27;20593;-71
2023/09/09 03:32:16;;;;;;;9.73;6.20;;;;;;;19.87;72.98;101418.06;2112120;27;20028;-71
2023/09/09 03:33:18;;;;;;;14.15;6.63;;;;;;;19.87;73.02;101423.53;2105713;27;20028;-71
2023/09/09 03:34:20;;;;;;;8.88;6.50;;;;;;;19.87;72.64;101418.06;2095060;28;21545;-71
2023/09/09 03:35:24;;;;;;;10.18;6.38;;;;;;;19.86;72.98;101422.72;2087264;27;20859;-71
2023/09/09 03:36:26;;;;;;;11.13;6.80;;;;;;;19.86;72.83;101424.63;2104120;27;20020;-71
2023/09/09 03:37:30;;;;;;;9.70;6.93;;;;;;;19.85;73.01;101431.22;2111582;27;20028;-70
2023/09/09 03:38:32;;;;;;;9.00;6.78;;;;;;;19.84;72.90;101424.97;2115752;27;20015;-71
2023/09/09 03:39:34;;;;;;;11.18;6.78;;;;;;;19.84;72.98;101426.91;2106344;27;20123;-71
2023/09/09 03:40:36;;;;;;;9.95;6.97;;;;;;;19.85;73.00;101431.22;2091661;27;20024;-70
2023/09/09 03:41:40;;;;;;;11.63;6.45;;;;;;;19.83;73.09;101425.28;2103387;27;20147;-71
2023/09/09 03:42:43;;;;;;;11.90;6.72;;;;;;;19.84;72.99;101437.81;2096044;27;20029;-71
2023/09/09 03:43:44;;;;;;;17.80;6.70;;;;;;;19.83;73.17;101433.47;2100234;27;20036;-71
2023/09/09 03:44:46;;;;;;;20.70;7.05;;;;;;;19.82;73.13;101435.38;2100125;27;20039;-71
2023/09/09 03:46:00;;;;;;;23.00;7.10;;;;;;;19.82;72.91;101431.88;2095493;27;20040;-71
2023/09/09 03:47:02;;;;;;;13.25;6.38;;;;;;;19.76;73.24;101422.22;2106741;27;20040;-70
2023/09/09 03:48:04;;;;;;;28.27;7.35;;;;;;;19.80;73.05;101428.66;2112570;27;20032;-70
2023/09/09 03:49:08;;;;;;;15.32;6.65;;;;;;;19.79;73.14;101441.47;2111782;27;20065;-70
2023/09/09 03:50:15;;;;;;;20.00;6.75;;;;;;;19.79;73.13;101436.03;2113132;27;20074;-70
2023/09/09 03:51:21;;;;;;;18.15;6.70;;;;;;;19.78;73.21;101437.16;2111838;27;20040;-71
2023/09/09 03:52:25;;;;;;;17.63;7.22;;;;;;;19.78;73.10;101439.09;2110612;27;20030;-70
2023/09/09 03:53:27;;;;;;;19.55;7.25;;;;;;;19.76;73.26;101439.41;2103158;27;20078;-70
2023/09/09 03:54:29;;;;;;;21.05;6.75;;;;;;;19.76;73.35;101438.59;2086682;28;20262;-70
2023/09/09 03:55:33;;;;;;;14.25;6.50;;;;;;;19.75;73.30;101434.28;2087264;27;20450;-71
2023/09/09 03:56:37;;;;;;;14.82;7.03;;;;;;;19.74;73.39;101432.66;2104031;27;20024;-71
2023/09/09 03:57:39;;;;;;;13.25;6.20;;;;;;;19.71;73.34;101430.56;2103669;27;20035;-70
2023/09/09 03:58:41;;;;;;;14.77;6.28;;;;;;;19.71;73.43;101434.09;2107431;27;20142;-71
2023/09/09 03:59:43;;;;;;;17.20;6.13;;;;;;;19.69;73.46;101430.88;2120645;27;20016;-71
2023/09/09 04:00:46;;;;;;;11.10;6.38;;;;;;;19.70;73.54;101428.94;2111992;27;20032;-70
2023/09/09 04:01:48;;;;;;;16.33;7.18;;;;;;;19.68;73.50;101432.00;2112340;27;20043;-70
2023/09/09 04:02:50;;;;;;;11.10;6.22;;;;;;;19.66;73.63;101424.13;2094983;27;20033;-70
2023/09/09 04:03:53;;;;;;;14.15;6.78;;;;;;;19.66;73.69;101420.59;2095172;27;20029;-70
2023/09/09 04:04:55;;;;;;;14.10;7.32;;;;;;;19.64;73.78;101431.03;2103092;27;20047;-71
2023/09/09 04:05:57;;;;;;;14.70;6.65;;;;;;;19.63;73.82;101424.75;2095621;27;20025;-70
2023/09/09 04:06:58;;;;;;;14.48;6.57;;;;;;;19.63;73.63;101423.94;2103060;27;20142;-71
2023/09/09 04:08:08;;;;;;;13.63;6.20;;;;;;;19.63;73.76;101423.94;2095849;27;21371;-71
2023/09/09 04:09:20;;;;;;;10.48;5.97;;;;;;;19.61;73.72;101418.81;2105759;27;20125;-71
2023/09/09 04:10:24;;;;;;;8.55;5.50;;;;;;;19.60;73.81;101427.31;2097926;27;20028;-70
2023/09/09 04:11:26;;;;;;;9.10;6.07;;;;;;;19.59;73.87;101422.97;2085257;27;20096;-70
2023/09/09 04:12:28;;;;;;;9.07;6.35;;;;;;;19.59;73.71;101422.97;2103218;27;20131;-70
2023/09/09 04:13:32;;;;;;;11.48;6.13;;;;;;;19.57;73.95;101420.56;2111847;27;20028;-71
2023/09/09 04:14:35;;;;;;;9.98;6.03;;;;;;;19.57;74.01;101417.81;2113308;27;22675;-70
2023/09/09 04:15:41;;;;;;;9.80;6.20;;;;;;;19.54;73.90;101415.72;2111989;27;20656;-70
2023/09/09 04:16:43;;;;;;;12.15;6.50;;;;;;;19.53;73.98;101408.69;2104138;27;20146;-71
2023/09/09 04:17:50;;;;;;;8.88;5.75;;;;;;;19.53;74.06;101416.88;2103371;27;20113;-70
2023/09/09 04:18:52;;;;;;;12.93;7.57;;;;;;;19.52;73.93;101412.53;2100956;27;20037;-71
2023/09/09 04:19:56;;;;;;;7.63;6.15;;;;;;;19.52;74.09;101409.81;2103320;27;20748;-71
2023/09/09 04:21:00;;;;;;;13.63;6.07;;;;;;;19.51;74.11;101410.91;2104336;27;20153;-71
2023/09/09 04:22:01;;;;;;;11.75;6.60;;;;;;;19.49;73.95;101418.63;2094726;28;20817;-71
2023/09/09 04:23:04;;;;;;;12.50;6.72;;;;;;;19.49;74.03;101413.19;2106128;27;20126;-71
2023/09/09 04:24:07;;;;;;;12.23;6.68;;;;;;;19.49;74.07;101412.38;2109148;27;20081;-71
2023/09/09 04:25:09;;;;;;;13.48;6.57;;;;;;;19.47;74.01;101418.13;2103361;27;20802;-71
2023/09/09 04:26:12;;;;;;;14.07;6.57;;;;;;;19.47;74.25;101411.88;2103159;27;20135;-71
2023/09/09 04:27:14;;;;;;;12.77;6.57;;;;;;;19.45;74.33;101415.75;2086693;28;20037;-71
2023/09/09 04:28:16;;;;;;;9.35;6.30;;;;;;;19.42;74.13;101407.41;2077892;28;20094;-71
2023/09/09 04:29:19;;;;;;;10.25;6.63;;;;;;;19.43;74.27;101409.78;2095519;27;20082;-71
2023/09/09 04:30:23;;;;;;;11.45;6.55;;;;;;;19.42;74.34;101413.66;2095140;27;20028;-71
2023/09/09 04:31:29;;;;;;;10.35;6.07;;;;;;;19.38;74.32;101401.75;2105564;27;20034;-70
2023/09/09 04:32:32;;;;;;;10.93;6.45;;;;;;;19.44;74.42;101410.59;2103346;27;20151;-70
2023/09/09 04:33:34;;;;;;;8.93;6.05;;;;;;;19.42;74.53;101407.41;2111587;27;20861;-71
2023/09/09 04:34:36;;;;;;;8.10;6.13;;;;;;;19.42;74.44;101404.66;2111306;27;20016;-71
2023/09/09 04:35:42;;;;;;;10.15;6.00;;;;;;;19.42;74.35;101407.41;2112139;27;21162;-71
2023/09/09 04:36:45;;;;;;;10.50;6.00;;;;;;;19.42;74.38;101412.84;2109652;27;21439;-71
2023/09/09 04:37:50;;;;;;;8.93;5.93;;;;;;;19.41;74.30;101408.50;2103782;27;20098;-71
2023/09/09 04:38:53;;;;;;;11.30;7.18;;;;;;;19.41;74.40;101411.22;2103807;27;20024;-71
2023/09/09 04:39:56;;;;;;;8.07;5.50;;;;;;;19.40;74.49;101415.88;2111696;27;20044;-71
2023/09/09 04:41:01;;;;;;;8.27;5.68;;;;;;;19.40;74.50;101412.34;2087786;28;20142;-71
2023/09/09 04:42:04;;;;;;;13.18;6.13;;;;;;;19.40;74.52;101409.63;2095921;27;20047;-71
2023/09/09 04:43:05;;;;;;;12.68;6.00;;;;;;;19.40;74.46;101415.06;2094738;28;20028;-71
2023/09/09 04:44:09;;;;;;;11.43;6.07;;;;;;;19.40;74.46;101415.88;2100305;27;20080;-70
2023/09/09 04:45:11;;;;;;;11.38;6.18;;;;;;;19.41;74.47;101413.94;2090996;27;20119;-70
2023/09/09 04:46:16;;;;;;;9.75;6.50;;;;;;;19.39;74.13;101414.28;2095700;27;20028;-70
2023/09/09 04:47:18;;;;;;;8.85;6.13;;;;;;;19.41;74.53;101411.22;2095449;27;20016;-70
2023/09/09 04:48:20;;;;;;;8.57;5.63;;;;;;;19.39;74.47;101410.75;2111985;27;20138;-71
2023/09/09 04:49:26;;;;;;;8.55;6.00;;;;;;;19.40;74.42;101412.34;2120190;27;20018;-70
2023/09/09 04:50:29;;;;;;;7.93;5.63;;;;;;;19.41;74.53;101405.75;2102970;27;20075;-70
2023/09/09 04:51:32;;;;;;;9.93;5.95;;;;;;;19.41;74.44;101413.94;2095844;27;20870;-70
2023/09/09 04:52:36;;;;;;;11.35;6.40;;;;;;;19.41;74.34;101417.47;2095578;27;20863;-69